Time;durP1;ratioP1;P1;durP2;ratioP2;P2;SDS_P1;SDS_P2;PMS_P1;PMS_P2;Temp;Humidity;BMP_temperature;BMP_pressure;BME280_temperature;BME280_humidity;BME280_pressure;Samples;Min_cycle;Max_cycle;Signal;HPM_P1;HPM_P2
2023/05/03 00:01:29;;;;;;;1.05;0.20;;;;;;;;;;5086666;28;20127;-47
2023/05/03 00:03:56;;;;;;;1.10;0.20;;;;;;;;;;5091190;28;20123;-46
2023/05/03 00:06:24;;;;;;;1.23;0.22;;;;;;;;;;5077554;28;20054;-46
2023/05/03 00:08:52;;;;;;;1.58;0.30;;;;;;;;;;5087304;28;20486;-47
2023/05/03 00:11:21;;;;;;;1.10;0.20;;;;;;;;;;5083960;28;20071;-47
2023/05/03 00:13:49;;;;;;;1.10;0.20;;;;;;;;;;5083440;28;20126;-46
2023/05/03 00:16:17;;;;;;;1.15;0.20;;;;;;;;;;5075014;28;20062;-46
2023/05/03 00:18:45;;;;;;;1.42;0.30;;;;;;;;;;5085673;28;20035;-48
2023/05/03 00:21:15;;;;;;;1.55;0.30;;;;;;;;;;5073872;28;20608;-46
2023/05/03 00:23:42;;;;;;;0.87;0.13;;;;;;;;;;5081318;28;20093;-50
2023/05/03 00:26:10;;;;;;;1.33;0.20;;;;;;;;;;5074757;28;20118;-47
2023/05/03 00:28:39;;;;;;;1.25;0.30;;;;;;;;;;5096411;28;20047;-47
2023/05/03 00:31:07;;;;;;;1.45;0.30;;;;;;;;;;5090209;28;20522;-47
2023/05/03 00:33:34;;;;;;;1.77;0.38;;;;;;;;;;5086817;28;20071;-49
2023/05/03 00:36:10;;;;;;;1.20;0.30;;;;;;;;;;5088845;28;20040;-47
2023/05/03 00:38:38;;;;;;;0.90;0.20;;;;;;;;;;5091075;28;20128;-46
2023/05/03 00:41:06;;;;;;;1.30;0.25;;;;;;;;;;5082409;28;20498;-48
2023/05/03 00:43:34;;;;;;;1.25;0.25;;;;;;;;;;5096847;28;20035;-48
2023/05/03 00:46:05;;;;;;;1.38;0.28;;;;;;;;;;5075165;28;20035;-50
2023/05/03 00:48:44;;;;;;;1.43;0.30;;;;;;;;;;5091096;28;20104;-47
2023/05/03 00:51:12;;;;;;;1.10;0.20;;;;;;;;;;5084016;28;20096;-48
2023/05/03 00:53:40;;;;;;;1.23;0.20;;;;;;;;;;5082299;28;20612;-50
2023/05/03 00:56:10;;;;;;;1.38;0.30;;;;;;;;;;5086190;28;20058;-50
2023/05/03 00:58:39;;;;;;;1.23;0.20;;;;;;;;;;5078733;28;20406;-47
2023/05/03 01:01:08;;;;;;;1.00;0.20;;;;;;;;;;5062565;28;20475;-48
2023/05/03 01:03:36;;;;;;;1.20;0.25;;;;;;;;;;5084565;28;20058;-48
2023/05/03 01:06:08;;;;;;;1.20;0.20;;;;;;;;;;5092051;28;20082;-47
2023/05/03 01:08:39;;;;;;;1.13;0.20;;;;;;;;;;5089956;27;20063;-48
2023/05/03 01:11:08;;;;;;;1.48;0.30;;;;;;;;;;5088493;28;20114;-48
2023/05/03 01:13:41;;;;;;;1.50;0.30;;;;;;;;;;5091426;28;20118;-49
2023/05/03 01:16:15;;;;;;;2.00;0.32;;;;;;;;;;5087505;28;20086;-48
2023/05/03 01:18:47;;;;;;;1.10;0.20;;;;;;;;;;5080461;28;20558;-46
2023/05/03 01:21:17;;;;;;;1.20;0.20;;;;;;;;;;5088063;28;20054;-49
2023/05/03 01:23:54;;;;;;;1.17;0.20;;;;;;;;;;5087317;28;20105;-51
2023/05/03 01:26:24;;;;;;;1.30;0.30;;;;;;;;;;5084795;28;20046;-47
2023/05/03 01:28:52;;;;;;;1.40;0.20;;;;;;;;;;5079652;28;20090;-48
2023/05/03 01:31:23;;;;;;;1.50;0.30;;;;;;;;;;5072041;28;20040;-46
2023/05/03 01:33:56;;;;;;;2.40;0.30;;;;;;;;;;5079614;28;20119;-47
2023/05/03 01:36:27;;;;;;;1.15;0.20;;;;;;;;;;5079463;28;20545;-47
2023/05/03 01:38:55;;;;;;;1.23;0.20;;;;;;;;;;5088398;28;20136;-48
2023/05/03 01:41:24;;;;;;;1.50;0.30;;;;;;;;;;5086669;28;20050;-48
2023/05/03 01:43:53;;;;;;;1.50;0.30;;;;;;;;;;5088525;28;20101;-46
2023/05/03 01:46:21;;;;;;;0.90;0.10;;;;;;;;;;5066697;28;20472;-47
2023/05/03 01:48:49;;;;;;;1.15;0.20;;;;;;;;;;5080396;28;20047;-48
2023/05/03 01:51:17;;;;;;;1.10;0.20;;;;;;;;;;5077726;28;20097;-47
2023/05/03 01:53:45;;;;;;;1.40;0.30;;;;;;;;;;5083152;28;20127;-46
2023/05/03 01:56:12;;;;;;;2.15;0.40;;;;;;;;;;5070462;28;20501;-47
2023/05/03 01:58:41;;;;;;;1.42;0.32;;;;;;;;;;5073179;28;20036;-45
2023/05/03 02:01:09;;;;;;;1.40;0.30;;;;;;;;;;5079728;28;20501;-49
2023/05/03 02:03:37;;;;;;;0.90;0.10;;;;;;;;;;5074186;28;20597;-49
2023/05/03 02:06:04;;;;;;;0.80;0.10;;;;;;;;;;5096246;28;20067;-46
2023/05/03 02:08:32;;;;;;;1.20;0.20;;;;;;;;;;5076537;28;20047;-46
2023/05/03 02:11:00;;;;;;;1.38;0.30;;;;;;;;;;5087356;28;20051;-47
2023/05/03 02:13:28;;;;;;;1.23;0.30;;;;;;;;;;5089996;28;20055;-47
2023/05/03 02:15:57;;;;;;;1.30;0.30;;;;;;;;;;5081315;28;20044;-47
2023/05/03 02:18:25;;;;;;;1.00;0.20;;;;;;;;;;5083422;28;20063;-47
2023/05/03 02:20:52;;;;;;;1.35;0.30;;;;;;;;;;5082868;28;20063;-49
2023/05/03 02:23:20;;;;;;;1.00;0.20;;;;;;;;;;5076624;28;20190;-48
2023/05/03 02:25:48;;;;;;;1.00;0.20;;;;;;;;;;5084425;28;20086;-45
2023/05/03 02:28:16;;;;;;;1.20;0.40;;;;;;;;;;5076212;28;20036;-47
2023/05/03 02:30:43;;;;;;;1.73;0.35;;;;;;;;;;5086776;28;20557;-46
2023/05/03 02:33:12;;;;;;;1.27;0.20;;;;;;;;;;5080316;28;20085;-47
2023/05/03 02:35:41;;;;;;;1.10;0.20;;;;;;;;;;5088088;28;20040;-46
2023/05/03 02:38:09;;;;;;;1.30;0.20;;;;;;;;;;5091152;28;20126;-47
2023/05/03 02:40:37;;;;;;;1.27;0.30;;;;;;;;;;5085804;28;20047;-47
2023/05/03 02:43:04;;;;;;;0.90;0.20;;;;;;;;;;5091013;28;20069;-47
2023/05/03 02:45:34;;;;;;;1.30;0.30;;;;;;;;;;5088137;28;20043;-49
2023/05/03 02:48:02;;;;;;;1.40;0.40;;;;;;;;;;5077442;28;20085;-46
2023/05/03 02:50:31;;;;;;;1.10;0.20;;;;;;;;;;5088743;28;20051;-45
2023/05/03 02:52:59;;;;;;;1.40;0.30;;;;;;;;;;5072253;28;20094;-46
2023/05/03 02:55:27;;;;;;;1.10;0.22;;;;;;;;;;5078729;28;20050;-47
2023/05/03 02:57:55;;;;;;;1.23;0.20;;;;;;;;;;5065553;28;20043;-48
2023/05/03 03:00:22;;;;;;;1.15;0.20;;;;;;;;;;5074669;28;20537;-46
2023/05/03 03:02:50;;;;;;;1.70;0.40;;;;;;;;;;5083411;28;20115;-45
2023/05/03 03:05:18;;;;;;;1.33;0.30;;;;;;;;;;5082024;28;20044;-47
2023/05/03 03:07:47;;;;;;;1.05;0.20;;;;;;;;;;5077865;28;20553;-49
2023/05/03 03:10:14;;;;;;;1.17;0.20;;;;;;;;;;5078827;28;20071;-47
2023/05/03 03:12:42;;;;;;;0.80;0.10;;;;;;;;;;5066092;28;20043;-49
2023/05/03 03:15:10;;;;;;;1.17;0.20;;;;;;;;;;5078582;28;20417;-47
2023/05/03 03:17:38;;;;;;;1.10;0.20;;;;;;;;;;5088102;28;20470;-46
2023/05/03 03:20:06;;;;;;;0.90;0.20;;;;;;;;;;5084479;28;20040;-47
2023/05/03 03:22:34;;;;;;;1.42;0.32;;;;;;;;;;5087743;28;20466;-47
2023/05/03 03:25:04;;;;;;;1.08;0.20;;;;;;;;;;5086372;28;20119;-48
2023/05/03 03:27:32;;;;;;;1.30;0.30;;;;;;;;;;5081339;28;20127;-46
2023/05/03 03:29:59;;;;;;;1.63;0.40;;;;;;;;;;5082711;28;20044;-45
2023/05/03 03:32:28;;;;;;;1.85;0.47;;;;;;;;;;5083885;28;20547;-46
2023/05/03 03:34:55;;;;;;;0.90;0.10;;;;;;;;;;5079592;28;20086;-46
2023/05/03 03:37:23;;;;;;;1.10;0.20;;;;;;;;;;5093817;28;20046;-48
2023/05/03 03:39:50;;;;;;;1.10;0.20;;;;;;;;;;5090130;28;20098;-46
2023/05/03 03:42:20;;;;;;;1.53;0.50;;;;;;;;;;5090348;28;20413;-46
2023/05/03 03:44:48;;;;;;;1.05;0.20;;;;;;;;;;5086889;28;20112;-45
2023/05/03 03:47:16;;;;;;;1.50;0.30;;;;;;;;;;5080169;28;20078;-46
2023/05/03 03:49:43;;;;;;;1.08;0.20;;;;;;;;;;5091760;28;20043;-46
2023/05/03 03:52:11;;;;;;;1.83;0.50;;;;;;;;;;5077673;28;20126;-48
2023/05/03 03:54:39;;;;;;;1.40;0.30;;;;;;;;;;5081591;28;20088;-45
2023/05/03 03:57:08;;;;;;;0.93;0.20;;;;;;;;;;5090726;28;20044;-48
2023/05/03 03:59:36;;;;;;;1.10;0.20;;;;;;;;;;5091991;28;20039;-49
2023/05/03 04:02:04;;;;;;;1.10;0.20;;;;;;;;;;5094627;28;20126;-47
2023/05/03 04:04:33;;;;;;;1.48;0.30;;;;;;;;;;5088774;28;20042;-49
2023/05/03 04:07:01;;;;;;;1.27;0.27;;;;;;;;;;5084053;28;20040;-45
2023/05/03 04:09:28;;;;;;;1.52;0.30;;;;;;;;;;5081335;28;20031;-46
2023/05/03 04:11:56;;;;;;;1.38;0.20;;;;;;;;;;5092753;28;20461;-47
2023/05/03 04:14:23;;;;;;;1.17;0.20;;;;;;;;;;5090311;28;20103;-45
2023/05/03 04:16:53;;;;;;;1.42;0.30;;;;;;;;;;5087752;28;20055;-45
2023/05/03 04:19:24;;;;;;;1.10;0.30;;;;;;;;;;5091325;28;20481;-45
2023/05/03 04:21:51;;;;;;;1.10;0.20;;;;;;;;;;5084313;28;20118;-45
2023/05/03 04:24:19;;;;;;;1.30;0.30;;;;;;;;;;5085638;28;20063;-46
2023/05/03 04:26:46;;;;;;;0.80;0.13;;;;;;;;;;5080967;28;20042;-45
2023/05/03 04:29:14;;;;;;;0.80;0.10;;;;;;;;;;5087576;28;20068;-46
2023/05/03 04:31:42;;;;;;;1.10;0.40;;;;;;;;;;5094748;28;20126;-47
2023/05/03 04:34:13;;;;;;;0.80;0.17;;;;;;;;;;5086324;28;20590;-47
2023/05/03 04:36:44;;;;;;;0.90;0.17;;;;;;;;;;5090558;28;20143;-49
2023/05/03 04:39:12;;;;;;;1.20;0.20;;;;;;;;;;5077063;28;20060;-47
2023/05/03 04:41:40;;;;;;;0.90;0.10;;;;;;;;;;5078782;28;20060;-45
2023/05/03 04:44:08;;;;;;;1.30;0.33;;;;;;;;;;5089623;28;20036;-46
2023/05/03 04:46:36;;;;;;;1.17;0.30;;;;;;;;;;5070783;28;20094;-46
2023/05/03 04:49:05;;;;;;;1.23;0.22;;;;;;;;;;5089656;28;20494;-49
2023/05/03 04:51:34;;;;;;;1.10;0.20;;;;;;;;;;5081927;28;20048;-48
2023/05/03 04:54:04;;;;;;;0.90;0.13;;;;;;;;;;5081843;28;20072;-45
2023/05/03 04:56:34;;;;;;;1.50;0.40;;;;;;;;;;5082953;28;20108;-48
2023/05/03 04:59:04;;;;;;;1.23;0.22;;;;;;;;;;5077841;28;20040;-47
2023/05/03 05:01:32;;;;;;;1.20;0.20;;;;;;;;;;5081856;28;20090;-49
2023/05/03 05:04:00;;;;;;;0.95;0.20;;;;;;;;;;5078479;28;21200;-51
2023/05/03 05:06:28;;;;;;;0.90;0.20;;;;;;;;;;5080760;28;20482;-45
2023/05/03 05:08:57;;;;;;;1.07;0.20;;;;;;;;;;5080723;28;20040;-46
2023/05/03 05:11:27;;;;;;;1.00;0.20;;;;;;;;;;5094269;28;20547;-46
2023/05/03 05:13:55;;;;;;;1.00;0.20;;;;;;;;;;5078331;28;20113;-49
2023/05/03 05:16:26;;;;;;;1.05;0.20;;;;;;;;;;5082104;28;20047;-45
2023/05/03 05:18:53;;;;;;;1.13;0.20;;;;;;;;;;5082112;28;20036;-45
2023/05/03 05:21:21;;;;;;;1.00;0.20;;;;;;;;;;5075478;28;21129;-50
2023/05/03 05:23:48;;;;;;;0.88;0.10;;;;;;;;;;5093901;28;20555;-46
2023/05/03 05:26:17;;;;;;;1.10;0.20;;;;;;;;;;5067574;28;20036;-48
2023/05/03 05:28:45;;;;;;;0.85;0.13;;;;;;;;;;5081681;28;20086;-46
2023/05/03 05:31:14;;;;;;;1.00;0.20;;;;;;;;;;5083499;28;20061;-48
2023/05/03 05:33:42;;;;;;;1.03;0.20;;;;;;;;;;5090775;28;20066;-45
2023/05/03 05:36:09;;;;;;;1.13;0.20;;;;;;;;;;5086006;28;20135;-46
2023/05/03 05:38:37;;;;;;;0.90;0.20;;;;;;;;;;5091830;28;20104;-49
2023/05/03 05:41:04;;;;;;;0.98;0.20;;;;;;;;;;5071414;28;20503;-48
2023/05/03 05:43:36;;;;;;;1.10;0.20;;;;;;;;;;5087287;28;20089;-47
2023/05/03 05:46:04;;;;;;;1.57;0.40;;;;;;;;;;5082251;28;20040;-47
2023/05/03 05:48:32;;;;;;;1.20;0.20;;;;;;;;;;5082364;28;20044;-46
2023/05/03 05:51:00;;;;;;;1.00;0.20;;;;;;;;;;5086911;28;20089;-46
2023/05/03 05:53:28;;;;;;;1.00;0.20;;;;;;;;;;5086323;28;20069;-49
2023/05/03 05:55:56;;;;;;;1.20;0.32;;;;;;;;;;5077836;28;20040;-48
2023/05/03 05:58:23;;;;;;;1.63;0.30;;;;;;;;;;5088226;28;20170;-45
2023/05/03 06:00:54;;;;;;;1.30;0.30;;;;;;;;;;5083315;28;20070;-50
2023/05/03 06:03:22;;;;;;;0.80;0.10;;;;;;;;;;5089868;28;20040;-48
2023/05/03 06:05:49;;;;;;;1.27;0.30;;;;;;;;;;5077051;28;20062;-46
2023/05/03 06:08:17;;;;;;;1.10;0.20;;;;;;;;;;5085682;28;20047;-47
2023/05/03 06:10:45;;;;;;;1.10;0.20;;;;;;;;;;5082374;28;20118;-47
2023/05/03 06:13:12;;;;;;;1.30;0.30;;;;;;;;;;5097117;28;20360;-47
2023/05/03 06:15:40;;;;;;;1.10;0.20;;;;;;;;;;5090107;28;20032;-44
2023/05/03 06:18:09;;;;;;;1.10;0.22;;;;;;;;;;5080489;28;20071;-46
2023/05/03 06:20:37;;;;;;;1.10;0.20;;;;;;;;;;5077524;28;20031;-46
2023/05/03 06:23:06;;;;;;;0.73;0.10;;;;;;;;;;5077954;28;20650;-47
2023/05/03 06:25:35;;;;;;;1.33;0.30;;;;;;;;;;5087357;28;20451;-45
2023/05/03 06:28:03;;;;;;;1.25;0.32;;;;;;;;;;5090999;28;20119;-46
2023/05/03 06:30:31;;;;;;;1.15;0.20;;;;;;;;;;5096991;28;20121;-47
2023/05/03 06:32:58;;;;;;;1.05;0.20;;;;;;;;;;5073496;28;20147;-45
2023/05/03 06:35:28;;;;;;;1.50;0.33;;;;;;;;;;5082212;28;20047;-47
2023/05/03 06:37:56;;;;;;;1.10;0.20;;;;;;;;;;5061088;28;20543;-50
2023/05/03 06:40:25;;;;;;;0.80;0.10;;;;;;;;;;5080430;28;20066;-46
2023/05/03 06:42:53;;;;;;;1.35;0.20;;;;;;;;;;5069680;28;20044;-46
2023/05/03 06:45:21;;;;;;;1.10;0.20;;;;;;;;;;5072478;28;20071;-45
2023/05/03 06:47:49;;;;;;;1.00;0.20;;;;;;;;;;5088028;28;20105;-46
2023/05/03 06:50:18;;;;;;;1.58;0.30;;;;;;;;;;5073007;28;20081;-49
2023/05/03 06:52:48;;;;;;;1.10;0.20;;;;;;;;;;5084525;28;20478;-46
2023/05/03 06:55:15;;;;;;;1.27;0.20;;;;;;;;;;5076250;28;20537;-47
2023/05/03 06:57:43;;;;;;;1.30;0.20;;;;;;;;;;5081573;28;20075;-45
2023/05/03 07:00:12;;;;;;;1.40;0.30;;;;;;;;;;5090393;28;20218;-47
2023/05/03 07:02:39;;;;;;;1.30;0.22;;;;;;;;;;5066243;28;20090;-47
2023/05/03 07:05:07;;;;;;;1.55;0.50;;;;;;;;;;5072410;28;20071;-49
2023/05/03 07:07:35;;;;;;;1.20;0.20;;;;;;;;;;5075638;28;20111;-47
2023/05/03 07:10:05;;;;;;;0.95;0.20;;;;;;;;;;5094489;28;20127;-46
2023/05/03 07:12:33;;;;;;;1.10;0.20;;;;;;;;;;5077648;28;20495;-47
2023/05/03 07:15:01;;;;;;;1.27;0.28;;;;;;;;;;5077371;28;20045;-48
2023/05/03 07:17:28;;;;;;;0.98;0.20;;;;;;;;;;5076493;28;20533;-46
2023/05/03 07:19:56;;;;;;;1.40;0.32;;;;;;;;;;5082901;28;20707;-45
2023/05/03 07:22:24;;;;;;;1.90;0.30;;;;;;;;;;5086485;28;20075;-46
2023/05/03 07:24:53;;;;;;;1.93;0.40;;;;;;;;;;5075420;28;20052;-45
2023/05/03 07:27:22;;;;;;;1.10;0.20;;;;;;;;;;5086066;28;20043;-48
2023/05/03 07:29:50;;;;;;;2.55;0.57;;;;;;;;;;5079014;28;20044;-46
2023/05/03 07:32:18;;;;;;;1.10;0.30;;;;;;;;;;5082294;28;20120;-48
2023/05/03 07:34:46;;;;;;;1.90;0.30;;;;;;;;;;5090974;28;20036;-49
2023/05/03 07:37:14;;;;;;;1.27;0.30;;;;;;;;;;5090657;28;20036;-49
2023/05/03 07:39:42;;;;;;;1.63;0.40;;;;;;;;;;5074805;28;20032;-50
2023/05/03 07:42:09;;;;;;;1.88;0.40;;;;;;;;;;5064279;28;20035;-51
2023/05/03 07:44:38;;;;;;;1.95;0.32;;;;;;;;;;5082920;28;20032;-48
2023/05/03 07:47:06;;;;;;;2.15;0.55;;;;;;;;;;5076011;28;20542;-46
2023/05/03 07:49:35;;;;;;;1.70;0.50;;;;;;;;;;5096911;28;20040;-48
2023/05/03 07:52:03;;;;;;;1.33;0.30;;;;;;;;;;5077981;28;20115;-45
2023/05/03 07:54:30;;;;;;;1.10;0.20;;;;;;;;;;5067583;28;20526;-48
2023/05/03 07:56:58;;;;;;;2.53;0.50;;;;;;;;;;5078479;28;20560;-48
2023/05/03 07:59:26;;;;;;;1.38;0.30;;;;;;;;;;5084546;28;20139;-47
2023/05/03 08:01:55;;;;;;;1.20;0.20;;;;;;;;;;5090646;28;20067;-48
2023/05/03 08:04:25;;;;;;;1.48;0.40;;;;;;;;;;5076113;28;20048;-46
2023/05/03 08:06:54;;;;;;;1.40;0.30;;;;;;;;;;5080111;28;20039;-49
2023/05/03 08:09:23;;;;;;;1.20;0.20;;;;;;;;;;5079326;28;20566;-46
2023/05/03 08:11:51;;;;;;;1.20;0.20;;;;;;;;;;5087419;28;20035;-46
2023/05/03 08:14:19;;;;;;;1.07;0.20;;;;;;;;;;5087072;28;20196;-48
2023/05/03 08:16:46;;;;;;;2.42;0.50;;;;;;;;;;5093174;28;20481;-47
2023/05/03 08:19:15;;;;;;;1.70;0.30;;;;;;;;;;5078976;28;20036;-48
2023/05/03 08:21:43;;;;;;;1.50;0.20;;;;;;;;;;5083117;28;20067;-48
2023/05/03 08:24:12;;;;;;;1.33;0.30;;;;;;;;;;5092200;28;20048;-47
2023/05/03 08:26:47;;;;;;;2.00;0.57;;;;;;;;;;5088768;28;20036;-46
2023/05/03 08:29:15;;;;;;;1.45;0.40;;;;;;;;;;5075504;28;20090;-49
2023/05/03 08:31:42;;;;;;;1.98;0.35;;;;;;;;;;5089901;28;20044;-46
2023/05/03 08:34:10;;;;;;;1.60;0.35;;;;;;;;;;5081517;28;20047;-47
2023/05/03 08:36:39;;;;;;;1.80;0.50;;;;;;;;;;5091148;28;20078;-49
2023/05/03 08:39:09;;;;;;;1.37;0.27;;;;;;;;;;5090398;28;20051;-47
2023/05/03 08:41:36;;;;;;;1.17;0.20;;;;;;;;;;5077976;28;20040;-47
2023/05/03 08:44:05;;;;;;;1.23;0.25;;;;;;;;;;5086163;28;20043;-48
2023/05/03 08:46:35;;;;;;;1.40;0.30;;;;;;;;;;5079411;28;20082;-46
2023/05/03 08:49:05;;;;;;;1.50;0.30;;;;;;;;;;5075623;28;20493;-48
2023/05/03 08:51:34;;;;;;;1.20;0.20;;;;;;;;;;5086309;28;20032;-49
2023/05/03 08:54:04;;;;;;;1.73;0.47;;;;;;;;;;5084774;28;20043;-49
2023/05/03 08:56:33;;;;;;;1.58;0.30;;;;;;;;;;5085822;28;20119;-46
2023/05/03 08:59:06;;;;;;;1.80;0.40;;;;;;;;;;5085663;28;20043;-45
2023/05/03 09:01:35;;;;;;;1.45;0.25;;;;;;;;;;5081279;28;20040;-47
2023/05/03 09:04:03;;;;;;;1.83;0.33;;;;;;;;;;5085869;28;20040;-50
2023/05/03 09:06:32;;;;;;;2.05;0.40;;;;;;;;;;5074218;28;20051;-50
2023/05/03 09:09:01;;;;;;;1.27;0.22;;;;;;;;;;5085695;28;20504;-47
2023/05/03 09:11:31;;;;;;;2.03;0.70;;;;;;;;;;5073757;28;20028;-47
2023/05/03 09:14:08;;;;;;;1.38;0.30;;;;;;;;;;5087974;28;20067;-47
2023/05/03 09:16:35;;;;;;;1.00;0.20;;;;;;;;;;5087535;28;20063;-45
2023/05/03 09:19:07;;;;;;;1.27;0.30;;;;;;;;;;5090506;28;20493;-45
2023/05/03 09:21:35;;;;;;;1.92;0.43;;;;;;;;;;5083212;28;20475;-49
2023/05/03 09:24:03;;;;;;;1.45;0.30;;;;;;;;;;5082763;28;20062;-47
2023/05/03 09:26:33;;;;;;;1.20;0.30;;;;;;;;;;5081138;28;20048;-45
2023/05/03 09:29:04;;;;;;;1.20;0.23;;;;;;;;;;5079218;28;20482;-46
2023/05/03 09:31:35;;;;;;;1.02;0.20;;;;;;;;;;5084375;28;20043;-47
2023/05/03 09:34:20;;;;;;;1.55;0.25;;;;;;;;;;5080482;28;20042;-47
2023/05/03 09:36:48;;;;;;;1.90;0.50;;;;;;;;;;5079670;28;20524;-50
2023/05/03 09:39:16;;;;;;;1.30;0.30;;;;;;;;;;5091204;28;20540;-50
2023/05/03 09:41:45;;;;;;;1.50;0.40;;;;;;;;;;5080461;28;20124;-47
2023/05/03 09:44:13;;;;;;;1.95;0.32;;;;;;;;;;5076573;28;20040;-48
2023/05/03 09:47:01;;;;;;;1.67;0.50;;;;;;;;;;5087101;28;20071;-46
2023/05/03 09:49:28;;;;;;;1.25;0.30;;;;;;;;;;5088507;28;20093;-47
2023/05/03 09:51:56;;;;;;;2.75;0.50;;;;;;;;;;5069762;28;20119;-46
2023/05/03 09:54:24;;;;;;;1.37;0.30;;;;;;;;;;5067448;28;20537;-45
2023/05/03 09:56:55;;;;;;;1.60;0.20;;;;;;;;;;5087242;28;20094;-46
2023/05/03 09:59:23;;;;;;;1.70;0.60;;;;;;;;;;5089969;28;20036;-47
2023/05/03 10:01:52;;;;;;;1.50;0.38;;;;;;;;;;5098059;28;20089;-51
2023/05/03 10:04:21;;;;;;;1.10;0.20;;;;;;;;;;5084603;28;20040;-45
2023/05/03 10:06:50;;;;;;;1.80;0.37;;;;;;;;;;5078337;28;20476;-47
2023/05/03 10:09:21;;;;;;;1.55;0.50;;;;;;;;;;5083382;28;20067;-48
2023/05/03 10:11:51;;;;;;;2.13;0.60;;;;;;;;;;5086754;28;20077;-46
2023/05/03 10:14:21;;;;;;;1.35;0.30;;;;;;;;;;5061543;28;20067;-46
2023/05/03 10:16:50;;;;;;;1.58;0.40;;;;;;;;;;5078016;28;20049;-46
2023/05/03 10:19:21;;;;;;;1.83;0.33;;;;;;;;;;5085350;28;20086;-48
2023/05/03 10:21:54;;;;;;;1.50;0.30;;;;;;;;;;5081831;28;20051;-48
2023/05/03 10:24:22;;;;;;;1.92;0.45;;;;;;;;;;5070009;28;20547;-46
2023/05/03 10:26:51;;;;;;;1.45;0.30;;;;;;;;;;5085787;28;20043;-47
2023/05/03 10:29:44;;;;;;;1.77;0.43;;;;;;;;;;5071550;28;20071;-47
2023/05/03 10:35:20;;;;;;;1.23;0.20;;;;;;;;;;5091705;27;20384;-46
2023/05/03 10:37:49;;;;;;;1.20;0.30;;;;;;;;;;5057579;28;20078;-48
2023/05/03 10:40:18;;;;;;;1.00;0.20;;;;;;;;;;5072644;28;20044;-46
2023/05/03 10:42:46;;;;;;;1.58;0.30;;;;;;;;;;5073529;28;20041;-46
2023/05/03 10:45:21;;;;;;;1.60;0.30;;;;;;;;;;5065330;28;20546;-47
2023/05/03 10:48:07;;;;;;;1.63;0.33;;;;;;;;;;5067376;28;20048;-46
2023/05/03 10:50:36;;;;;;;1.70;0.40;;;;;;;;;;5063317;28;20032;-48
2023/05/03 10:53:04;;;;;;;1.60;0.35;;;;;;;;;;5070440;28;20142;-46
2023/05/03 10:55:32;;;;;;;1.50;0.30;;;;;;;;;;5065015;28;20037;-46
2023/05/03 10:58:00;;;;;;;1.73;0.40;;;;;;;;;;5068811;28;20075;-46
2023/05/03 11:00:31;;;;;;;1.40;0.30;;;;;;;;;;5064335;28;20099;-46
2023/05/03 11:03:09;;;;;;;1.45;0.30;;;;;;;;;;5055397;28;20044;-48
2023/05/03 11:05:39;;;;;;;1.92;0.50;;;;;;;;;;5071620;28;20680;-47
2023/05/03 11:08:11;;;;;;;2.13;0.52;;;;;;;;;;5059908;28;20344;-48
2023/05/03 11:10:39;;;;;;;2.50;0.60;;;;;;;;;;5069167;28;20111;-47
2023/05/03 11:13:08;;;;;;;2.07;0.33;;;;;;;;;;5070083;28;20109;-49
2023/05/03 11:15:36;;;;;;;1.65;0.50;;;;;;;;;;5058005;28;20047;-49
2023/05/03 11:18:04;;;;;;;1.40;0.30;;;;;;;;;;5072849;28;20040;-46
2023/05/03 11:20:32;;;;;;;1.60;0.40;;;;;;;;;;5069621;28;20033;-45
2023/05/03 11:23:02;;;;;;;1.85;0.45;;;;;;;;;;5065784;28;20068;-46
2023/05/03 11:25:29;;;;;;;1.63;0.40;;;;;;;;;;5073427;28;20079;-47
2023/05/03 11:27:57;;;;;;;2.60;0.38;;;;;;;;;;5069606;28;20323;-48
2023/05/03 11:30:25;;;;;;;2.22;0.60;;;;;;;;;;5101505;27;20481;-49
2023/05/03 11:32:52;;;;;;;1.92;0.50;;;;;;;;;;5099330;27;20036;-47
2023/05/03 11:35:22;;;;;;;1.90;0.52;;;;;;;;;;5064332;28;20076;-47
2023/05/03 11:37:51;;;;;;;2.07;0.57;;;;;;;;;;5070599;28;20037;-45
2023/05/03 11:40:20;;;;;;;1.80;0.40;;;;;;;;;;5068949;28;20544;-48
2023/05/03 11:42:52;;;;;;;1.25;0.22;;;;;;;;;;5065900;28;20044;-47
2023/05/03 11:45:21;;;;;;;1.55;0.30;;;;;;;;;;5091296;27;20060;-48
2023/05/03 11:47:50;;;;;;;1.80;0.50;;;;;;;;;;5056580;28;20047;-47
2023/05/03 11:50:19;;;;;;;1.50;0.37;;;;;;;;;;5046406;28;20165;-46
2023/05/03 11:52:47;;;;;;;1.42;0.30;;;;;;;;;;5058686;28;20694;-47
2023/05/03 11:55:16;;;;;;;1.35;0.30;;;;;;;;;;5057915;28;20572;-47
2023/05/03 11:57:46;;;;;;;1.73;0.40;;;;;;;;;;5083828;28;20044;-49
2023/05/03 12:00:16;;;;;;;1.30;0.30;;;;;;;;;;5058694;28;20078;-48
2023/05/03 12:02:44;;;;;;;2.07;0.23;;;;;;;;;;5055203;28;20040;-48
2023/05/03 12:05:12;;;;;;;2.75;0.40;;;;;;;;;;5054502;28;20093;-45
2023/05/03 12:07:41;;;;;;;2.05;0.47;;;;;;;;;;5056760;28;20036;-45
2023/05/03 12:10:14;;;;;;;1.92;0.47;;;;;;;;;;5058332;28;20114;-48
2023/05/03 12:12:56;;;;;;;1.63;0.47;;;;;;;;;;5046462;28;20480;-49
2023/05/03 12:15:30;;;;;;;2.20;0.57;;;;;;;;;;5053874;28;20044;-45
2023/05/03 12:18:01;;;;;;;2.03;0.40;;;;;;;;;;5053777;28;20044;-45
2023/05/03 12:20:31;;;;;;;1.80;0.40;;;;;;;;;;5054517;28;20098;-47
2023/05/03 12:23:03;;;;;;;1.13;0.20;;;;;;;;;;5050162;28;20599;-45
2023/05/03 12:25:32;;;;;;;1.52;0.30;;;;;;;;;;5056058;28;20036;-46
2023/05/03 12:28:04;;;;;;;2.23;0.60;;;;;;;;;;5057146;28;20040;-44
2023/05/03 12:30:35;;;;;;;1.67;0.40;;;;;;;;;;5049834;28;20476;-48
2023/05/03 12:33:07;;;;;;;1.80;0.43;;;;;;;;;;5040439;28;20155;-46
2023/05/03 12:35:37;;;;;;;2.22;0.57;;;;;;;;;;5057469;28;20127;-44
2023/05/03 12:38:07;;;;;;;1.98;0.50;;;;;;;;;;5055943;28;20166;-47
2023/05/03 12:40:37;;;;;;;1.90;0.60;;;;;;;;;;5051316;28;20041;-48
2023/05/03 12:43:07;;;;;;;1.98;0.52;;;;;;;;;;5050719;28;20055;-45
2023/05/03 12:45:35;;;;;;;1.63;0.32;;;;;;;;;;5058341;28;20098;-48
2023/05/03 12:48:06;;;;;;;2.35;0.50;;;;;;;;;;5053392;28;20497;-44
2023/05/03 12:50:34;;;;;;;1.77;0.52;;;;;;;;;;5054501;28;20045;-46
2023/05/03 12:53:06;;;;;;;1.80;0.30;;;;;;;;;;5050845;28;20179;-45
2023/05/03 12:55:38;;;;;;;1.90;0.50;;;;;;;;;;5049344;28;20070;-48
2023/05/03 12:58:12;;;;;;;1.63;0.40;;;;;;;;;;5055795;28;20054;-46
2023/05/03 13:00:59;;;;;;;1.92;0.50;;;;;;;;;;5050479;28;20049;-46
2023/05/03 13:03:30;;;;;;;1.85;0.47;;;;;;;;;;5051175;28;20127;-45
2023/05/03 13:06:03;;;;;;;1.63;0.37;;;;;;;;;;5055335;28;20070;-46
2023/05/03 13:08:40;;;;;;;2.13;0.47;;;;;;;;;;5080415;28;20430;-48
2023/05/03 13:11:17;;;;;;;2.38;0.60;;;;;;;;;;5052365;28;20032;-45
2023/05/03 13:13:47;;;;;;;2.22;0.45;;;;;;;;;;5055041;28;20055;-46
2023/05/03 13:16:16;;;;;;;2.30;0.50;;;;;;;;;;5038093;28;20569;-45
2023/05/03 13:18:44;;;;;;;2.13;0.30;;;;;;;;;;5045418;28;20093;-45
2023/05/03 13:21:12;;;;;;;1.20;0.20;;;;;;;;;;5054837;28;20482;-48
2023/05/03 13:23:40;;;;;;;2.10;0.30;;;;;;;;;;5058344;28;20044;-45
2023/05/03 13:26:07;;;;;;;2.85;0.60;;;;;;;;;;5049139;28;20094;-48
2023/05/03 13:28:35;;;;;;;2.08;0.50;;;;;;;;;;5045473;28;20102;-49
2023/05/03 13:31:04;;;;;;;1.93;0.30;;;;;;;;;;5035557;28;20032;-46
2023/05/03 13:33:32;;;;;;;1.90;0.43;;;;;;;;;;5055029;28;20127;-45
2023/05/03 13:35:59;;;;;;;2.00;0.57;;;;;;;;;;5045388;28;20135;-45
2023/05/03 13:38:27;;;;;;;2.15;0.65;;;;;;;;;;5050574;28;20119;-45
2023/05/03 13:40:54;;;;;;;2.10;0.60;;;;;;;;;;5052757;28;20510;-46
2023/05/03 13:43:22;;;;;;;2.13;0.50;;;;;;;;;;5082170;28;20494;-48
2023/05/03 13:45:51;;;;;;;1.83;0.60;;;;;;;;;;5037138;28;20534;-45
2023/05/03 13:48:20;;;;;;;2.35;0.60;;;;;;;;;;5054890;28;20045;-44
2023/05/03 13:50:52;;;;;;;2.40;0.45;;;;;;;;;;5054048;28;20036;-45
2023/05/03 13:53:20;;;;;;;4.15;0.77;;;;;;;;;;5056023;28;20040;-48
2023/05/03 13:55:47;;;;;;;2.63;0.67;;;;;;;;;;5044401;28;20072;-46
2023/05/03 13:58:15;;;;;;;1.73;0.32;;;;;;;;;;5047952;28;20352;-45
2023/05/03 14:00:43;;;;;;;2.15;0.50;;;;;;;;;;5049839;28;20071;-46
2023/05/03 14:03:12;;;;;;;2.33;0.63;;;;;;;;;;5047183;28;20636;-46
2023/05/03 14:05:41;;;;;;;2.40;0.70;;;;;;;;;;5056163;28;20048;-46
2023/05/03 14:08:09;;;;;;;2.47;0.60;;;;;;;;;;5052691;28;20054;-45
2023/05/03 14:10:38;;;;;;;2.35;0.70;;;;;;;;;;5053347;28;20631;-47
2023/05/03 14:13:06;;;;;;;2.95;0.70;;;;;;;;;;5043321;28;20054;-44
2023/05/03 14:15:38;;;;;;;2.00;0.40;;;;;;;;;;5051133;28;20076;-45
2023/05/03 14:18:06;;;;;;;2.17;0.60;;;;;;;;;;5049786;28;20048;-46
2023/05/03 14:20:34;;;;;;;2.57;0.60;;;;;;;;;;5056769;28;20064;-48
2023/05/03 14:23:03;;;;;;;2.28;0.68;;;;;;;;;;5051371;28;20487;-45
2023/05/03 14:25:31;;;;;;;1.65;0.40;;;;;;;;;;5055448;28;20033;-46
2023/05/03 14:27:59;;;;;;;1.90;0.50;;;;;;;;;;5042041;28;20094;-47
2023/05/03 14:30:26;;;;;;;2.13;0.60;;;;;;;;;;5056990;28;20037;-46
2023/05/03 14:32:54;;;;;;;2.67;0.80;;;;;;;;;;5051398;28;20551;-48
2023/05/03 14:35:22;;;;;;;2.20;0.55;;;;;;;;;;5049903;28;20549;-45
2023/05/03 14:37:50;;;;;;;2.05;0.50;;;;;;;;;;5051434;28;20530;-47
2023/05/03 14:40:19;;;;;;;2.00;0.50;;;;;;;;;;5053714;28;20058;-46
2023/05/03 14:42:47;;;;;;;2.22;0.57;;;;;;;;;;5047191;28;20183;-45
2023/05/03 14:45:15;;;;;;;2.00;0.47;;;;;;;;;;5047933;28;20045;-45
2023/05/03 14:47:43;;;;;;;2.15;0.45;;;;;;;;;;5056858;28;20063;-45
2023/05/03 14:50:11;;;;;;;2.05;0.60;;;;;;;;;;5050822;28;20043;-44
2023/05/03 14:52:38;;;;;;;2.28;0.65;;;;;;;;;;5051412;28;20493;-46
2023/05/03 14:55:07;;;;;;;5.40;0.95;;;;;;;;;;5043766;28;20051;-46
2023/05/03 14:57:37;;;;;;;2.53;0.53;;;;;;;;;;5050976;28;20091;-48